createdAt,value
2018-07-02T00:00:32.548Z,97637.59
2018-07-02T00:03:01.834Z,97637.83
2018-07-02T00:05:47.962Z,97633.94
2018-07-02T00:08:17.255Z,97630.45
2018-07-02T00:10:46.547Z,97633.56
2018-07-02T00:13:15.835Z,97637.09
2018-07-02T00:15:45.096Z,97630.65
2018-07-02T00:18:14.339Z,97623.41
2018-07-02T00:20:43.611Z,97625.96
2018-07-02T00:23:12.899Z,97622.52
2018-07-02T00:25:42.173Z,97624.16
2018-07-02T00:28:11.418Z,97625.69
2018-07-02T00:30:40.677Z,97624.08
2018-07-02T00:33:10.019Z,97611.69
2018-07-02T00:35:39.270Z,97611.59
2018-07-02T00:38:08.566Z,97606.58
2018-07-02T00:40:37.806Z,97611.05
2018-07-02T00:43:07.268Z,97608.42
2018-07-02T00:45:36.539Z,97609.49
2018-07-02T00:48:06.080Z,97601.00
2018-07-02T00:50:35.320Z,97610.44
2018-07-02T00:53:04.917Z,97602.65
2018-07-02T00:55:34.200Z,97606.98
2018-07-02T00:58:03.451Z,97609.31
2018-07-02T01:00:32.691Z,97601.92
2018-07-02T01:03:01.969Z,97600.36
2018-07-02T01:05:31.174Z,97597.76
2018-07-02T01:08:00.386Z,97602.63
2018-07-02T01:10:29.658Z,97603.52
2018-07-02T01:12:58.928Z,97600.44
2018-07-02T01:15:28.167Z,97598.83
2018-07-02T01:17:57.427Z,97601.59
2018-07-02T01:20:26.683Z,97602.93
2018-07-02T01:22:55.970Z,97595.48
2018-07-02T01:25:25.352Z,97597.91
2018-07-02T01:27:54.391Z,97599.81
2018-07-02T01:30:23.704Z,97604.97
2018-07-02T01:32:53.014Z,97605.00
2018-07-02T01:35:22.315Z,97608.54
2018-07-02T01:37:51.610Z,97607.82
2018-07-02T01:40:20.684Z,97606.77
2018-07-02T01:42:49.980Z,97609.19
2018-07-02T01:45:19.650Z,97610.31
2018-07-02T01:47:48.681Z,97611.91
2018-07-02T01:50:17.956Z,97610.30
2018-07-02T01:52:47.234Z,97606.33
2018-07-02T01:55:16.510Z,97611.69
2018-07-02T01:57:45.784Z,97606.38
2018-07-02T02:00:15.027Z,97612.80
2018-07-02T02:02:44.266Z,97613.61
2018-07-02T02:05:13.541Z,97612.30
2018-07-02T02:07:42.809Z,97608.80
2018-07-02T02:10:12.099Z,97605.66
2018-07-02T02:12:41.328Z,97606.22
2018-07-02T02:15:10.599Z,97615.30
2018-07-02T02:17:39.901Z,97621.22
2018-07-02T02:20:09.182Z,97617.75
2018-07-02T02:22:38.443Z,97615.37
2018-07-02T02:25:07.862Z,97610.83
2018-07-02T02:27:37.262Z,97613.51
2018-07-02T02:30:06.871Z,97612.14
2018-07-02T02:32:36.270Z,97609.47
2018-07-02T02:35:06.068Z,97611.58
2018-07-02T02:37:35.378Z,97609.70
2018-07-02T02:40:05.043Z,97603.58
2018-07-02T02:42:34.352Z,97610.27
2018-07-02T02:45:03.732Z,97614.87
2018-07-02T02:47:32.971Z,97613.53
2018-07-02T02:50:02.281Z,97618.05
2018-07-02T02:52:31.567Z,97611.88
2018-07-02T02:55:00.853Z,97613.52
2018-07-02T02:57:30.118Z,97614.34
2018-07-02T02:59:59.373Z,97619.16
2018-07-02T03:02:28.607Z,97619.17
2018-07-02T03:04:57.904Z,97620.47
2018-07-02T03:07:27.174Z,97617.30
2018-07-02T03:09:56.468Z,97614.63
2018-07-02T03:12:25.725Z,97604.99
2018-07-02T03:14:55.026Z,97608.75
2018-07-02T03:17:24.382Z,97607.42
2018-07-02T03:19:53.657Z,97611.69
2018-07-02T03:22:22.958Z,97611.45
2018-07-02T03:24:52.272Z,97616.83
2018-07-02T03:27:21.563Z,97607.73
2018-07-02T03:29:51.173Z,97606.40
2018-07-02T03:32:20.483Z,97618.71
2018-07-02T03:34:49.876Z,97614.95
2018-07-02T03:37:19.099Z,97615.77
2018-07-02T03:39:48.300Z,97614.69
2018-07-02T03:42:17.511Z,97617.11
2018-07-02T03:44:46.771Z,97623.78
2018-07-02T03:47:15.963Z,97625.14
2018-07-02T03:49:45.197Z,97619.50
2018-07-02T03:52:14.411Z,97622.98
2018-07-02T03:54:43.631Z,97619.23
2018-07-02T03:57:12.862Z,97619.77
2018-07-02T03:59:42.060Z,97619.23
2018-07-02T04:02:11.271Z,97620.84
2018-07-02T04:04:40.536Z,97620.03
2018-07-02T04:07:09.860Z,97632.07
2018-07-02T04:09:39.118Z,97632.31
2018-07-02T04:12:08.497Z,97634.45
2018-07-02T04:14:37.701Z,97637.67
2018-07-02T04:17:07.004Z,97632.58
2018-07-02T04:19:37.187Z,97635.77
2018-07-02T04:22:06.414Z,97630.42
2018-07-02T04:24:35.649Z,97633.36
2018-07-02T04:27:05.176Z,97625.30
2018-07-02T04:29:34.398Z,97631.45
2018-07-02T04:32:03.647Z,97633.56
2018-07-02T04:34:32.850Z,97635.72
2018-07-02T04:37:02.075Z,97634.35
2018-07-02T04:39:31.279Z,97640.75
2018-07-02T04:42:00.511Z,97643.39
2018-07-02T04:44:29.729Z,97637.97
2018-07-02T04:46:58.958Z,97636.63
2018-07-02T04:49:28.159Z,97635.14
2018-07-02T04:51:57.503Z,97633.32
2018-07-02T04:54:26.778Z,97631.34
2018-07-02T04:56:55.990Z,97629.81
2018-07-02T04:59:25.292Z,97625.42
2018-07-02T05:01:54.602Z,97629.99
2018-07-02T05:04:23.895Z,97630.34
2018-07-02T05:06:53.139Z,97637.11
2018-07-02T05:09:22.561Z,97631.61
2018-07-02T05:11:52.015Z,97632.38
2018-07-02T05:14:21.437Z,97630.35
2018-07-02T05:16:50.733Z,97627.11
2018-07-02T05:19:20.037Z,97629.38
2018-07-02T05:21:49.343Z,97631.70
2018-07-02T05:24:18.330Z,97635.28
2018-07-02T05:26:47.603Z,97637.64
2018-07-02T05:29:16.983Z,97631.23
2018-07-02T05:31:46.277Z,97625.32
2018-07-02T05:34:15.541Z,97623.98
2018-07-02T05:36:44.898Z,97627.24
2018-07-02T05:39:14.323Z,97623.08
2018-07-02T05:41:43.822Z,97620.48
2018-07-02T05:44:12.967Z,97618.97
2018-07-02T05:46:42.279Z,97624.53
2018-07-02T05:49:11.592Z,97635.14
2018-07-02T05:51:40.873Z,97640.27
2018-07-02T05:54:10.196Z,97644.68
2018-07-02T05:56:39.389Z,97645.09
2018-07-02T05:59:08.711Z,97645.73
2018-07-02T06:01:37.994Z,97646.05
2018-07-02T06:04:07.390Z,97654.16
2018-07-02T06:06:36.759Z,97649.66
2018-07-02T06:09:10.019Z,97656.62
2018-07-02T06:11:40.164Z,97649.00
2018-07-02T06:14:10.366Z,97651.50
2018-07-02T06:16:39.710Z,97651.22
2018-07-02T06:19:09.179Z,97649.58
2018-07-02T06:21:38.486Z,97647.55
2018-07-02T06:24:07.947Z,97653.02
2018-07-02T06:26:37.219Z,97650.92
2018-07-02T06:29:06.541Z,97650.88
2018-07-02T06:31:35.783Z,97654.81
2018-07-02T06:34:05.119Z,97655.27
2018-07-02T06:36:34.465Z,97649.94
2018-07-02T06:39:05.045Z,97651.61
2018-07-02T06:41:34.366Z,97650.97
2018-07-02T06:44:03.766Z,97656.93
2018-07-02T06:46:33.132Z,97654.63
2018-07-02T06:49:02.822Z,97651.61
2018-07-02T06:51:32.161Z,97661.16
2018-07-02T06:54:01.526Z,97656.02
2018-07-02T06:56:30.783Z,97660.56
2018-07-02T06:59:00.150Z,97652.47
2018-07-02T07:01:29.475Z,97663.45
2018-07-02T07:03:58.792Z,97672.23
2018-07-02T07:06:28.187Z,97664.98
2018-07-02T07:08:57.521Z,97667.31
2018-07-02T07:11:26.857Z,97662.03
2018-07-02T07:13:56.223Z,97658.32
2018-07-02T07:16:25.646Z,97660.58
2018-07-02T07:18:54.981Z,97662.92
2018-07-02T07:21:24.415Z,97653.06
2018-07-02T07:23:53.689Z,97662.91
2018-07-02T07:26:22.973Z,97663.09
2018-07-02T07:28:52.436Z,97669.06
2018-07-02T07:31:21.805Z,97670.31
2018-07-02T07:33:51.158Z,97660.77
2018-07-02T07:36:20.655Z,97668.87
2018-07-02T07:38:49.946Z,97664.61
2018-07-02T07:41:19.157Z,97663.59
2018-07-02T07:43:48.419Z,97661.95
2018-07-02T07:46:17.687Z,97662.56
2018-07-02T07:48:46.951Z,97665.84
2018-07-02T07:51:16.269Z,97666.09
2018-07-02T07:53:45.683Z,97670.80
2018-07-02T07:56:14.983Z,97663.92
2018-07-02T07:58:44.274Z,97659.13
2018-07-02T08:01:13.564Z,97662.05
2018-07-02T08:03:43.002Z,97663.07
2018-07-02T08:06:12.202Z,97658.41
2018-07-02T08:08:41.443Z,97661.34
2018-07-02T08:11:10.739Z,97655.28
2018-07-02T08:13:39.961Z,97653.55
2018-07-02T08:16:09.273Z,97658.41
2018-07-02T08:18:38.600Z,97653.86
2018-07-02T08:21:08.296Z,97648.70
2018-07-02T08:23:37.730Z,97645.45
2018-07-02T08:26:07.128Z,97649.27
2018-07-02T08:28:36.443Z,97641.03
2018-07-02T08:31:05.797Z,97638.52
2018-07-02T08:33:35.145Z,97643.63
2018-07-02T08:36:04.590Z,97630.73
2018-07-02T08:38:33.838Z,97629.22
2018-07-02T08:41:03.138Z,97632.52
2018-07-02T08:43:32.446Z,97636.22
2018-07-02T08:46:01.735Z,97628.80
2018-07-02T08:48:31.267Z,97630.16
2018-07-02T08:51:00.558Z,97636.05
2018-07-02T08:53:29.594Z,97634.28
2018-07-02T08:55:58.950Z,97637.45
2018-07-02T08:58:28.232Z,97630.68
2018-07-02T09:00:57.542Z,97620.33
2018-07-02T09:03:26.862Z,97630.48
2018-07-02T09:05:56.192Z,97627.69
2018-07-02T09:08:25.616Z,97623.48
2018-07-02T09:10:54.944Z,97630.31
2018-07-02T09:13:24.295Z,97628.81
2018-07-02T09:15:53.673Z,97628.36
2018-07-02T09:18:23.039Z,97629.05
2018-07-02T09:20:52.366Z,97632.47
2018-07-02T09:23:21.689Z,97622.61
2018-07-02T09:25:50.934Z,97626.81
2018-07-02T09:28:20.243Z,97628.92
2018-07-02T09:30:49.691Z,97630.37
2018-07-02T09:33:18.955Z,97635.27
2018-07-02T09:35:48.214Z,97628.94
2018-07-02T09:38:17.477Z,97633.00
2018-07-02T09:40:46.754Z,97630.83
2018-07-02T09:43:16.058Z,97634.02
2018-07-02T09:45:45.312Z,97627.46
2018-07-02T09:48:14.581Z,97623.36
2018-07-02T09:50:43.835Z,97629.06
2018-07-02T09:53:13.083Z,97627.14
2018-07-02T09:55:42.395Z,97626.34
2018-07-02T09:58:11.663Z,97618.96
2018-07-02T10:00:40.922Z,97629.98
2018-07-02T10:03:10.787Z,97631.54
2018-07-02T10:05:40.098Z,97628.27
2018-07-02T10:08:09.373Z,97631.51
2018-07-02T10:10:38.640Z,97632.58
2018-07-02T10:13:07.976Z,97616.25
2018-07-02T10:15:37.310Z,97623.73
2018-07-02T10:18:06.368Z,97629.16
2018-07-02T10:20:35.725Z,97628.03
2018-07-02T10:23:05.045Z,97627.59
2018-07-02T10:25:34.258Z,97631.97
2018-07-02T10:28:03.507Z,97624.38
2018-07-02T10:30:32.719Z,97629.67
2018-07-02T10:33:01.975Z,97627.87
2018-07-02T10:35:31.188Z,97624.86
2018-07-02T10:38:00.567Z,97628.72
2018-07-02T10:40:29.810Z,97628.23
2018-07-02T10:42:59.120Z,97630.22
2018-07-02T10:45:28.336Z,97618.88
2018-07-02T10:47:57.615Z,97624.63
2018-07-02T10:50:26.906Z,97631.24
2018-07-02T10:52:56.191Z,97627.28
2018-07-02T10:55:25.513Z,97625.55
2018-07-02T10:57:54.855Z,97621.20
2018-07-02T11:00:24.176Z,97623.40
2018-07-02T11:02:53.448Z,97619.03
2018-07-02T11:05:22.727Z,97623.89
2018-07-02T11:07:51.986Z,97622.94
2018-07-02T11:10:21.311Z,97616.16
2018-07-02T11:12:50.343Z,97616.34
2018-07-02T11:15:19.616Z,97620.18
2018-07-02T11:17:48.874Z,97619.61
2018-07-02T11:20:18.157Z,97622.94
2018-07-02T11:22:47.515Z,97616.88
2018-07-02T11:25:16.921Z,97615.16
2018-07-02T11:27:46.201Z,97617.72
2018-07-02T11:30:15.579Z,97622.66
2018-07-02T11:32:44.950Z,97622.08
2018-07-02T11:35:14.262Z,97622.27
2018-07-02T11:37:43.594Z,97619.16
2018-07-02T11:40:13.086Z,97616.02
2018-07-02T11:42:42.558Z,97621.72
2018-07-02T11:45:11.911Z,97614.20
2018-07-02T11:47:41.230Z,97614.78
2018-07-02T11:50:10.653Z,97622.68
2018-07-02T11:52:40.179Z,97614.79
2018-07-02T11:55:09.551Z,97617.05
2018-07-02T11:57:38.569Z,97614.47
2018-07-02T12:00:08.823Z,97615.56
2018-07-02T12:02:38.344Z,97618.70
2018-07-02T12:05:07.785Z,97619.34
2018-07-02T12:07:37.101Z,97624.45
2018-07-02T12:10:06.475Z,97622.00
2018-07-02T12:12:35.730Z,97608.72
2018-07-02T12:15:05.423Z,97618.45
2018-07-02T12:17:34.715Z,97618.88
2018-07-02T12:20:04.700Z,97626.51
2018-07-02T12:22:34.592Z,97620.91
2018-07-02T12:25:10.663Z,97620.09
2018-07-02T12:27:40.019Z,97613.59
2018-07-02T12:30:09.426Z,97611.44
2018-07-02T12:32:38.916Z,97613.97
2018-07-02T12:35:08.271Z,97612.36
2018-07-02T12:37:37.599Z,97605.93
2018-07-02T12:40:06.874Z,97603.73
2018-07-02T12:42:36.168Z,97606.56
2018-07-02T12:45:05.705Z,97597.38
2018-07-02T12:47:35.010Z,97601.22
2018-07-02T12:50:04.473Z,97606.17
2018-07-02T12:52:33.881Z,97605.28
2018-07-02T12:55:03.268Z,97606.63
2018-07-02T12:57:32.583Z,97606.47
2018-07-02T13:00:01.932Z,97605.01
2018-07-02T13:02:31.241Z,97605.71
2018-07-02T13:05:00.519Z,97602.64
2018-07-02T13:07:29.799Z,97594.42
2018-07-02T13:09:59.088Z,97587.70
2018-07-02T13:12:28.432Z,97588.42
2018-07-02T13:14:57.476Z,97574.36
2018-07-02T13:17:26.859Z,97582.94
2018-07-02T13:19:56.258Z,97579.08
2018-07-02T13:22:25.641Z,97578.37
2018-07-02T13:24:54.774Z,97578.45
2018-07-02T13:27:24.064Z,97575.78
2018-07-02T13:29:53.603Z,97575.25
2018-07-02T13:32:23.084Z,97575.66
2018-07-02T13:34:52.983Z,97566.80
2018-07-02T13:37:22.385Z,97572.05
2018-07-02T13:39:51.922Z,97572.46
2018-07-02T13:42:21.402Z,97568.09
2018-07-02T13:44:50.819Z,97561.18
2018-07-02T13:47:20.255Z,97559.89
2018-07-02T13:49:49.765Z,97559.99
2018-07-02T13:52:19.152Z,97564.64
2018-07-02T13:54:48.491Z,97556.22
2018-07-02T13:57:17.826Z,97564.73
2018-07-02T13:59:47.364Z,97557.38
2018-07-02T14:02:16.738Z,97556.66
2018-07-02T14:04:46.117Z,97545.61
2018-07-02T14:07:15.577Z,97551.97
2018-07-02T14:09:44.997Z,97548.78
2018-07-02T14:12:14.438Z,97542.52
2018-07-02T14:14:43.954Z,97547.63
2018-07-02T14:17:13.285Z,97543.58
2018-07-02T14:19:42.734Z,97545.95
2018-07-02T14:22:12.044Z,97548.17
2018-07-02T14:24:41.057Z,97547.04
2018-07-02T14:27:10.435Z,97543.17
2018-07-02T14:29:39.707Z,97548.92
2018-07-02T14:32:09.038Z,97539.69
2018-07-02T14:34:38.288Z,97540.23
2018-07-02T14:37:07.718Z,97535.36
2018-07-02T14:39:37.032Z,97534.03
2018-07-02T14:42:06.439Z,97542.80
2018-07-02T14:44:35.934Z,97540.67
2018-07-02T14:47:05.272Z,97541.45
2018-07-02T14:49:35.663Z,97537.00
2018-07-02T14:52:05.065Z,97536.01
2018-07-02T14:54:34.389Z,97535.66
2018-07-02T14:57:03.836Z,97534.98
2018-07-02T14:59:33.322Z,97534.38
2018-07-02T15:02:02.595Z,97537.78
2018-07-02T15:04:32.044Z,97538.63
2018-07-02T15:07:01.356Z,97533.38
2018-07-02T15:09:32.701Z,97526.48
2018-07-02T15:12:02.149Z,97530.06
2018-07-02T15:14:31.480Z,97525.86
2018-07-02T15:17:00.923Z,97531.21
2018-07-02T15:19:30.322Z,97527.72
2018-07-02T15:21:59.684Z,97520.08
2018-07-02T15:24:28.823Z,97526.31
2018-07-02T15:26:58.189Z,97522.45
2018-07-02T15:29:27.607Z,97528.86
2018-07-02T15:31:57.079Z,97530.36
2018-07-02T15:34:26.444Z,97522.27
2018-07-02T15:36:55.932Z,97526.81
2018-07-02T15:39:25.561Z,97523.20
2018-07-02T15:41:54.974Z,97534.84
2018-07-02T15:44:24.306Z,97529.80
2018-07-02T15:46:53.817Z,97530.67
2018-07-02T15:49:23.297Z,97528.91
2018-07-02T15:51:52.678Z,97530.41
2018-07-02T15:54:22.250Z,97528.11
2018-07-02T15:56:51.560Z,97536.69
2018-07-02T15:59:20.983Z,97531.09
2018-07-02T16:01:50.373Z,97529.36
2018-07-02T16:04:19.687Z,97521.75
2018-07-02T16:06:49.248Z,97523.27
2018-07-02T16:09:18.665Z,97520.64
2018-07-02T16:11:47.946Z,97518.77
2018-07-02T16:14:17.242Z,97520.03
2018-07-02T16:16:46.599Z,97517.88
2018-07-02T16:19:16.155Z,97508.86
2018-07-02T16:21:45.652Z,97514.61
2018-07-02T16:24:14.799Z,97516.81
2018-07-02T16:26:44.295Z,97514.20
2018-07-02T16:29:13.654Z,97515.02
2018-07-02T16:31:43.117Z,97507.69
2018-07-02T16:34:12.548Z,97503.45
2018-07-02T16:36:41.956Z,97510.39
2018-07-02T16:39:11.711Z,97502.33
2018-07-02T16:41:41.129Z,97496.63
2018-07-02T16:44:10.598Z,97502.55
2018-07-02T16:46:39.951Z,97501.87
2018-07-02T16:49:09.374Z,97497.23
2018-07-02T16:51:38.856Z,97494.77
2018-07-02T16:54:08.306Z,97501.98
2018-07-02T16:56:37.779Z,97507.52
2018-07-02T16:59:07.232Z,97501.45
2018-07-02T17:01:36.729Z,97503.78
2018-07-02T17:04:06.660Z,97501.09
2018-07-02T17:06:36.089Z,97514.79
2018-07-02T17:09:09.958Z,97510.34
2018-07-02T17:11:39.963Z,97505.19
2018-07-02T17:14:10.135Z,97516.63
2018-07-02T17:16:40.443Z,97516.63
2018-07-02T17:19:09.874Z,97515.29
2018-07-02T17:21:39.387Z,97519.42
2018-07-02T17:24:08.998Z,97519.75
2018-07-02T17:26:38.701Z,97517.95
2018-07-02T17:29:08.092Z,97514.33
2018-07-02T17:31:38.326Z,97513.66
2018-07-02T17:34:07.498Z,97504.48
2018-07-02T17:36:36.881Z,97520.71
2018-07-02T17:39:09.599Z,97517.38
2018-07-02T17:41:39.134Z,97527.46
2018-07-02T17:44:08.543Z,97522.86
2018-07-02T17:46:37.934Z,97529.45
2018-07-02T17:49:07.443Z,97529.50
2018-07-02T17:51:37.967Z,97531.36
2018-07-02T17:54:07.469Z,97528.69
2018-07-02T17:56:36.700Z,97525.27
2018-07-02T17:59:06.259Z,97518.06
2018-07-02T18:01:35.679Z,97519.50
2018-07-02T18:04:05.229Z,97524.89
2018-07-02T18:06:34.597Z,97523.95
2018-07-02T18:09:05.204Z,97529.55
2018-07-02T18:12:37.867Z,97522.09
2018-07-02T18:15:07.560Z,97518.63
2018-07-02T18:17:37.083Z,97522.13
2018-07-02T18:20:06.468Z,97523.72
2018-07-02T18:22:35.818Z,97532.66
2018-07-02T18:25:05.378Z,97521.45
2018-07-02T18:27:34.771Z,97529.33
2018-07-02T18:30:04.547Z,97521.83
2018-07-02T18:32:33.894Z,97524.76
2018-07-02T18:35:03.347Z,97524.94
2018-07-02T18:37:32.894Z,97529.97
2018-07-02T18:40:02.363Z,97526.20
2018-07-02T18:42:31.827Z,97527.59
2018-07-02T18:45:01.336Z,97526.05
2018-07-02T18:47:30.900Z,97532.45
2018-07-02T18:50:00.225Z,97530.13
2018-07-02T18:52:29.595Z,97536.20
2018-07-02T18:54:58.876Z,97534.04
2018-07-02T18:57:28.381Z,97535.20
2018-07-02T18:59:57.628Z,97540.45
2018-07-02T19:02:26.759Z,97540.25
2018-07-02T19:04:56.102Z,97543.64
2018-07-02T19:07:25.487Z,97539.23
2018-07-02T19:09:56.806Z,97539.04
2018-07-02T19:12:26.171Z,97524.08
2018-07-02T19:14:55.543Z,97544.23
2018-07-02T19:17:25.233Z,97550.82
2018-07-02T19:19:54.661Z,97555.37
2018-07-02T19:22:24.183Z,97554.56
2018-07-02T19:24:53.845Z,97556.83
2018-07-02T19:27:23.223Z,97557.13
2018-07-02T19:29:52.796Z,97560.42
2018-07-02T19:32:22.292Z,97561.64
2018-07-02T19:34:51.702Z,97562.53
2018-07-02T19:37:21.474Z,97566.58
2018-07-02T19:39:50.971Z,97567.83
2018-07-02T19:42:20.298Z,97574.45
2018-07-02T19:44:49.639Z,97581.61
2018-07-02T19:47:18.965Z,97585.97
2018-07-02T19:49:48.317Z,97588.40
2018-07-02T19:52:17.798Z,97593.30
2018-07-02T19:54:47.088Z,97597.85
2018-07-02T19:57:16.514Z,97597.06
2018-07-02T19:59:46.176Z,97604.02
2018-07-02T20:02:15.603Z,97609.27
2018-07-02T20:04:45.001Z,97607.59
2018-07-02T20:07:14.422Z,97612.97
2018-07-02T20:09:43.866Z,97619.53
2018-07-02T20:12:13.048Z,97628.70
2018-07-02T20:14:42.434Z,97624.50
2018-07-02T20:17:11.903Z,97625.06
2018-07-02T20:19:41.338Z,97626.73
2018-07-02T20:22:10.744Z,97635.19
2018-07-02T20:24:40.139Z,97632.71
2018-07-02T20:27:09.638Z,97637.00
2018-07-02T20:29:39.372Z,97639.12
2018-07-02T20:32:08.809Z,97648.34
2018-07-02T20:34:38.227Z,97651.34
2018-07-02T20:37:07.555Z,97655.44
2018-07-02T20:39:37.051Z,97652.07
2018-07-02T20:42:06.406Z,97655.52
2018-07-02T20:44:35.891Z,97660.78
2018-07-02T20:47:05.285Z,97659.67
2018-07-02T20:49:34.369Z,97662.84
2018-07-02T20:52:03.825Z,97671.45
2018-07-02T20:54:33.207Z,97662.13
2018-07-02T20:57:02.311Z,97669.75
2018-07-02T21:03:04.191Z,97667.44
2018-07-02T21:05:34.030Z,97680.91
2018-07-02T21:08:03.389Z,97677.23
2018-07-02T21:10:32.934Z,97680.80
2018-07-02T21:13:01.947Z,97694.17
2018-07-02T21:15:31.278Z,97680.89
2018-07-02T21:18:00.720Z,97681.00
2018-07-02T21:20:30.297Z,97685.78
2018-07-02T21:22:59.653Z,97673.42
2018-07-02T21:25:29.153Z,97676.95
2018-07-02T21:27:58.567Z,97675.18
2018-07-02T21:30:27.903Z,97681.31
2018-07-02T21:32:57.220Z,97687.13
2018-07-02T21:35:26.632Z,97685.03
2018-07-02T21:37:56.074Z,97683.23
2018-07-02T21:40:25.367Z,97692.26
2018-07-02T21:42:54.775Z,97681.45
2018-07-02T21:45:24.239Z,97696.86
2018-07-02T21:47:53.673Z,97692.08
2018-07-02T21:50:23.075Z,97690.75
2018-07-02T21:52:52.552Z,97691.50
2018-07-02T21:55:22.017Z,97689.11
2018-07-02T21:57:51.474Z,97696.03
2018-07-02T22:00:21.045Z,97693.52
2018-07-02T22:02:50.460Z,97692.54
2018-07-02T22:05:19.823Z,97686.09
2018-07-02T22:07:49.184Z,97684.55
2018-07-02T22:10:18.543Z,97684.30
2018-07-02T22:12:47.871Z,97682.98
2018-07-02T22:15:17.164Z,97683.75
2018-07-02T22:17:46.505Z,97682.61
2018-07-02T22:20:15.526Z,97688.25
2018-07-02T22:22:44.835Z,97687.61
2018-07-02T22:25:13.834Z,97685.30
2018-07-02T22:27:43.207Z,97683.79
2018-07-02T22:30:12.548Z,97688.98
2018-07-02T22:32:42.902Z,97687.38
2018-07-02T22:35:12.204Z,97682.85
2018-07-02T22:37:41.548Z,97694.36
2018-07-02T22:40:10.811Z,97691.80
2018-07-02T22:42:40.194Z,97684.98
2018-07-02T22:45:09.512Z,97681.84
2018-07-02T22:47:38.839Z,97686.05
2018-07-02T22:50:08.236Z,97686.05
2018-07-02T22:52:37.531Z,97684.89
2018-07-02T22:55:07.032Z,97684.23
2018-07-02T22:57:36.410Z,97677.05
2018-07-02T23:00:06.903Z,97675.34
2018-07-02T23:02:36.327Z,97675.89
2018-07-02T23:05:06.008Z,97678.05
2018-07-02T23:07:35.442Z,97678.84
2018-07-02T23:10:04.685Z,97684.67
2018-07-02T23:12:34.028Z,97685.34
2018-07-02T23:15:03.418Z,97689.64
2018-07-02T23:17:32.682Z,97685.31
2018-07-02T23:20:02.032Z,97681.16
2018-07-02T23:23:00.715Z,97686.23
2018-07-02T23:25:30.358Z,97689.01
2018-07-02T23:28:00.828Z,97682.90
2018-07-02T23:30:31.298Z,97686.81
2018-07-02T23:33:00.765Z,97685.31
2018-07-02T23:35:30.064Z,97685.66
2018-07-02T23:37:59.055Z,97691.25
2018-07-02T23:40:28.318Z,97683.20
2018-07-02T23:42:57.708Z,97676.47
2018-07-02T23:45:26.974Z,97673.97
2018-07-02T23:47:56.208Z,97673.06
2018-07-02T23:50:25.306Z,97661.94
2018-07-02T23:52:54.791Z,97674.19
2018-07-02T23:55:24.272Z,97676.18
2018-07-02T23:57:53.646Z,97675.92
